createdAt,value
2019-02-26T00:04:23.207Z,50.17
2019-02-26T00:09:28.235Z,43.90
2019-02-26T00:14:33.356Z,46.13
2019-02-26T00:19:37.577Z,42.60
2019-02-26T00:24:42.701Z,53.40
2019-02-26T00:29:49.213Z,47.00
2019-02-26T00:34:55.721Z,50.03
2019-02-26T00:39:59.668Z,51.13
2019-02-26T00:45:05.803Z,47.77
2019-02-26T00:50:12.015Z,47.40
2019-02-26T00:55:16.366Z,47.87
2019-02-26T01:00:20.804Z,50.87
2019-02-26T01:05:25.047Z,44.50
2019-02-26T01:10:29.293Z,44.47
2019-02-26T01:15:33.530Z,45.63
2019-02-26T01:20:37.767Z,47.53
2019-02-26T01:25:42.233Z,46.20
2019-02-26T01:30:48.911Z,45.43
2019-02-26T01:35:53.464Z,49.03
2019-02-26T01:40:58.512Z,45.53
2019-02-26T01:46:02.741Z,47.83
2019-02-26T01:51:06.971Z,48.53
2019-02-26T01:56:11.204Z,49.53
2019-02-26T02:01:16.797Z,45.33
2019-02-26T02:06:21.519Z,47.37
2019-02-26T02:11:28.244Z,48.03
2019-02-26T02:16:33.507Z,41.47
2019-02-26T02:21:37.935Z,51.23
2019-02-26T02:26:45.338Z,48.70
2019-02-26T02:31:48.119Z,50.20
2019-02-26T02:36:52.372Z,52.97
2019-02-26T02:41:56.839Z,56.90
2019-02-26T02:47:03.347Z,52.73
2019-02-26T02:52:09.623Z,56.90
2019-02-26T02:57:13.712Z,55.30
2019-02-26T03:02:20.446Z,52.00
2019-02-26T03:07:26.699Z,55.27
2019-02-26T03:12:29.988Z,56.90
2019-02-26T03:17:34.203Z,58.27
2019-02-26T03:22:41.969Z,53.73
2019-02-26T03:27:44.596Z,55.90
2019-02-26T03:32:55.698Z,59.13
2019-02-26T03:37:57.933Z,61.63
2019-02-26T03:43:01.508Z,61.40
2019-02-26T03:48:06.769Z,55.03
2019-02-26T03:53:10.999Z,66.83
2019-02-26T03:58:15.222Z,59.17
2019-02-26T04:03:19.954Z,66.47
2019-02-26T04:08:25.084Z,64.47
2019-02-26T04:13:30.199Z,58.57
2019-02-26T04:18:34.935Z,60.57
2019-02-26T04:23:41.560Z,60.33
2019-02-26T04:28:57.352Z,62.20
2019-02-26T04:34:15.232Z,57.03
2019-02-26T04:39:42.912Z,57.17
2019-02-26T04:45:22.407Z,59.93
2019-02-26T04:50:29.568Z,60.20
2019-02-26T04:55:36.103Z,64.23
2019-02-26T05:00:38.961Z,61.87
2019-02-26T05:05:43.184Z,65.67
2019-02-26T05:10:49.818Z,64.10
2019-02-26T05:15:53.402Z,56.43
2019-02-26T05:20:59.305Z,63.23
2019-02-26T05:26:05.557Z,65.77
2019-02-26T05:31:12.466Z,65.83
2019-02-26T05:36:17.245Z,69.33
2019-02-26T05:41:21.639Z,65.27
2019-02-26T05:46:27.500Z,66.93
2019-02-26T05:51:32.673Z,71.00
2019-02-26T05:56:40.769Z,69.67
2019-02-26T06:01:46.503Z,69.17
2019-02-26T06:06:51.075Z,67.97
2019-02-26T06:11:55.795Z,73.17
2019-02-26T06:17:00.053Z,85.10
2019-02-26T06:22:04.266Z,66.07
2019-02-26T06:27:10.907Z,71.07
2019-02-26T06:32:15.866Z,68.47
2019-02-26T06:37:23.504Z,68.03
2019-02-26T06:42:28.330Z,95.63
2019-02-26T06:47:33.903Z,74.40
2019-02-26T06:52:39.935Z,80.83
2019-02-26T06:57:47.078Z,77.73
2019-02-26T07:02:50.256Z,74.07
2019-02-26T07:07:56.937Z,66.20
2019-02-26T07:13:02.113Z,76.47
2019-02-26T07:18:07.694Z,71.80
2019-02-26T07:23:12.919Z,76.13
2019-02-26T07:28:20.062Z,80.70
2019-02-26T07:33:24.277Z,73.53
2019-02-26T07:38:28.518Z,79.30
2019-02-26T07:43:36.656Z,78.80
2019-02-26T07:48:38.897Z,83.73
2019-02-26T07:53:48.482Z,80.63
2019-02-26T07:58:49.071Z,87.63
2019-02-26T08:03:53.376Z,80.47
2019-02-26T08:08:57.614Z,83.67
2019-02-26T08:14:01.850Z,85.20
2019-02-26T08:19:06.075Z,85.03
2019-02-26T08:24:12.370Z,86.03
2019-02-26T08:29:16.622Z,78.60
2019-02-26T08:34:20.864Z,87.90
2019-02-26T08:39:25.111Z,86.90
2019-02-26T08:44:29.323Z,87.43
2019-02-26T08:49:35.338Z,83.57
2019-02-26T08:54:39.490Z,87.90
2019-02-26T08:59:45.466Z,84.30
2019-02-26T09:04:49.679Z,88.37
2019-02-26T09:09:56.874Z,85.80
2019-02-26T09:14:59.908Z,87.17
2019-02-26T09:20:09.366Z,88.07
2019-02-26T09:25:10.607Z,88.17
2019-02-26T09:30:16.317Z,92.53
2019-02-26T09:35:26.777Z,90.83
2019-02-26T09:40:29.126Z,92.70
2019-02-26T09:45:32.612Z,90.70
2019-02-26T09:50:38.587Z,91.77
2019-02-26T09:55:42.798Z,84.03
2019-02-26T10:00:48.105Z,85.60
2019-02-26T10:05:55.148Z,84.80
2019-02-26T10:11:01.678Z,83.70
2019-02-26T10:16:06.456Z,88.33
2019-02-26T10:21:12.314Z,94.00
2019-02-26T10:26:16.881Z,91.83
2019-02-26T10:31:23.963Z,91.67
2019-02-26T10:36:30.392Z,85.97
2019-02-26T10:41:34.839Z,86.70
2019-02-26T10:46:41.780Z,86.93
2019-02-26T10:51:45.067Z,83.67
2019-02-26T10:56:49.300Z,84.13
2019-02-26T11:01:55.300Z,86.97
2019-02-26T11:07:01.676Z,86.23
2019-02-26T11:12:08.326Z,98.30
2019-02-26T11:17:11.428Z,88.57
2019-02-26T11:22:18.171Z,83.27
2019-02-26T11:27:21.627Z,90.77
2019-02-26T11:32:27.806Z,88.87
2019-02-26T11:37:32.111Z,87.07
2019-02-26T11:42:36.390Z,80.83
2019-02-26T11:47:41.307Z,88.63
2019-02-26T11:52:46.944Z,77.20
2019-02-26T11:57:51.202Z,82.53
2019-02-26T12:02:55.464Z,81.08
2019-02-26T12:07:59.740Z,85.65
2019-02-26T12:13:04.102Z,85.22
2019-02-26T12:18:10.145Z,94.15
2019-02-26T12:23:16.174Z,83.37
2019-02-26T12:28:20.406Z,85.47
2019-02-26T12:33:24.855Z,84.23
2019-02-26T12:38:29.156Z,80.63
2019-02-26T12:43:36.460Z,78.10
2019-02-26T12:48:41.862Z,82.50
2019-02-26T12:53:47.557Z,83.00
2019-02-26T12:58:54.545Z,80.73
2019-02-26T13:03:57.923Z,91.17
2019-02-26T13:09:02.233Z,85.40
2019-02-26T13:14:06.484Z,85.27
2019-02-26T13:19:11.110Z,85.70
2019-02-26T13:24:17.802Z,83.10
2019-02-26T13:29:21.346Z,81.60
2019-02-26T13:34:25.598Z,89.20
2019-02-26T13:39:38.001Z,85.63
2019-02-26T13:44:35.884Z,88.15
2019-02-26T13:49:40.121Z,89.05
2019-02-26T13:54:44.379Z,80.62
2019-02-26T13:59:48.882Z,86.02
2019-02-26T14:04:53.169Z,89.22
2019-02-26T14:09:57.486Z,84.07
2019-02-26T14:15:03.694Z,87.00
2019-02-26T14:20:08.983Z,90.50
2019-02-26T14:25:13.256Z,91.75
2019-02-26T14:30:17.376Z,91.05
2019-02-26T14:35:21.611Z,88.00
2019-02-26T14:40:25.855Z,87.00
2019-02-26T14:45:30.078Z,82.93
2019-02-26T14:50:35.258Z,89.07
2019-02-26T14:55:39.537Z,92.08
2019-02-26T15:00:43.782Z,92.27
2019-02-26T15:05:48.012Z,90.30
2019-02-26T15:10:52.251Z,88.30
2019-02-26T15:15:56.492Z,101.60
2019-02-26T15:21:00.722Z,96.00
2019-02-26T15:26:04.953Z,96.10
2019-02-26T15:31:09.245Z,92.17
2019-02-26T15:36:13.469Z,102.60
2019-02-26T15:41:17.736Z,102.50
2019-02-26T15:46:21.992Z,105.17
2019-02-26T15:51:26.240Z,101.43
2019-02-26T15:56:30.494Z,104.17
2019-02-26T16:01:34.753Z,113.37
2019-02-26T16:06:39.020Z,106.27
2019-02-26T16:11:43.310Z,104.87
2019-02-26T16:16:47.676Z,109.50
2019-02-26T16:21:51.927Z,120.30
2019-02-26T16:26:56.388Z,121.67
2019-02-26T16:32:02.657Z,110.40
2019-02-26T16:37:07.928Z,111.43
2019-02-26T16:42:12.475Z,110.28
2019-02-26T16:47:17.475Z,116.17
2019-02-26T16:52:21.726Z,110.00
2019-02-26T16:57:28.176Z,111.40
2019-02-26T17:02:31.999Z,113.87
2019-02-26T17:07:36.336Z,110.50
2019-02-26T17:12:40.588Z,113.27
2019-02-26T17:17:44.827Z,139.97
2019-02-26T17:22:49.097Z,179.27
2019-02-26T17:27:53.387Z,134.47
2019-02-26T17:32:57.648Z,115.77
2019-02-26T17:38:01.909Z,119.17
2019-02-26T17:43:06.604Z,117.50
2019-02-26T17:48:10.857Z,117.13
2019-02-26T17:53:15.104Z,119.00
2019-02-26T17:58:19.348Z,123.50
2019-02-26T18:03:25.626Z,123.67
2019-02-26T18:08:29.622Z,121.07
2019-02-26T18:13:33.952Z,118.37
2019-02-26T18:18:38.215Z,120.37
2019-02-26T18:23:42.459Z,124.30
2019-02-26T18:28:47.911Z,115.60
2019-02-26T18:33:52.648Z,114.47
2019-02-26T18:38:57.148Z,113.63
2019-02-26T18:44:09.596Z,102.53
2019-02-26T18:49:13.848Z,101.20
2019-02-26T18:54:20.317Z,99.27
2019-02-26T18:59:24.071Z,107.90
2019-02-26T19:04:28.359Z,110.10
2019-02-26T19:09:32.590Z,105.23
2019-02-26T19:14:36.831Z,109.87
2019-02-26T19:19:42.014Z,106.13
2019-02-26T19:24:46.787Z,107.47
2019-02-26T19:29:51.043Z,101.63
2019-02-26T19:34:55.270Z,110.10
2019-02-26T19:39:59.522Z,118.33
2019-02-26T19:45:08.360Z,99.63
2019-02-26T19:50:11.857Z,109.13
2019-02-26T19:55:19.822Z,113.03
2019-02-26T20:00:24.192Z,117.80
2019-02-26T20:05:28.525Z,117.97
2019-02-26T20:10:32.826Z,118.20
2019-02-26T20:15:37.187Z,107.20
2019-02-26T20:20:45.688Z,107.50
2019-02-26T20:25:47.599Z,111.93
2019-02-26T20:30:51.869Z,116.67
2019-02-26T20:35:56.163Z,114.40
2019-02-26T20:41:00.403Z,114.60
2019-02-26T20:46:04.687Z,116.77
2019-02-26T20:51:09.021Z,122.00
2019-02-26T20:56:13.555Z,120.93
2019-02-26T21:01:17.968Z,122.17
2019-02-26T21:06:22.232Z,111.93
2019-02-26T21:11:26.500Z,123.00
2019-02-26T21:16:30.738Z,126.20
2019-02-26T21:21:35.836Z,117.83
2019-02-26T21:26:40.230Z,117.17
2019-02-26T21:31:44.474Z,136.97
2019-02-26T21:36:48.724Z,137.03
2019-02-26T21:41:55.627Z,130.83
2019-02-26T21:46:58.959Z,124.47
2019-02-26T21:52:06.649Z,116.43
2019-02-26T21:57:09.152Z,121.70
2019-02-26T22:02:13.383Z,119.10
2019-02-26T22:07:19.076Z,124.83
2019-02-26T22:12:24.200Z,116.73
2019-02-26T22:17:29.425Z,129.20
2019-02-26T22:22:33.636Z,122.83
2019-02-26T22:27:38.163Z,125.33
2019-02-26T22:32:42.437Z,134.17
2019-02-26T22:37:46.661Z,132.30
2019-02-26T22:42:50.991Z,121.03
2019-02-26T22:47:55.417Z,137.43
2019-02-26T22:53:03.769Z,118.67
2019-02-26T22:58:05.653Z,132.90
2019-02-26T23:03:10.718Z,122.13
2019-02-26T23:08:15.936Z,122.17
2019-02-26T23:13:20.410Z,118.07
2019-02-26T23:18:24.680Z,127.27
2019-02-26T23:23:29.475Z,133.97
2019-02-26T23:28:33.733Z,131.87
2019-02-26T23:33:37.965Z,123.37
2019-02-26T23:38:44.189Z,131.87
2019-02-26T23:43:48.190Z,124.90
2019-02-26T23:48:52.411Z,122.03
2019-02-26T23:53:56.647Z,133.03
2019-02-26T23:59:01.708Z,130.90
